Time;durP1;ratioP1;P1;durP2;ratioP2;P2;SDS_P1;SDS_P2;PMS_P1;PMS_P2;Temp;Humidity;BMP_temperature;BMP_pressure;BME280_temperature;BME280_humidity;BME280_pressure;Samples;Min_cycle;Max_cycle;Signal;HPM_P1;HPM_P2
2022/01/24 00:00:07;;;;;;;4.00;2.60;;;;;;;19.74;41.90;103578.06;5026674;28;20222;-71
2022/01/24 00:02:35;;;;;;;4.60;2.30;;;;;;;19.71;41.61;103578.31;5023813;28;20295;-71
2022/01/24 00:05:01;;;;;;;3.97;2.30;;;;;;;19.68;42.07;103576.72;5027714;28;20042;-72
2022/01/24 00:07:26;;;;;;;5.55;2.33;;;;;;;19.66;41.95;103580.44;5028454;28;20029;-70
2022/01/24 00:09:55;;;;;;;3.95;2.30;;;;;;;19.61;41.98;103584.28;5031785;28;20075;-70
2022/01/24 00:12:39;;;;;;;3.78;1.92;;;;;;;19.59;41.96;103570.34;5046557;28;20462;-71
2022/01/24 00:28:04;;;;;;;2.63;1.77;;;;;;;19.43;42.22;103582.94;5031912;28;20067;-71
2022/01/24 00:30:30;;;;;;;3.53;2.30;;;;;;;19.39;42.28;103577.97;5027546;28;20045;-71
2022/01/24 00:32:56;;;;;;;3.30;1.95;;;;;;;19.35;42.36;103573.84;5033491;28;20039;-70
2022/01/24 00:35:22;;;;;;;3.05;2.20;;;;;;;19.33;42.43;103566.88;5029755;28;20860;-72
2022/01/24 00:37:47;;;;;;;3.58;2.08;;;;;;;19.33;42.38;103572.16;5031261;28;20049;-72
2022/01/24 00:40:14;;;;;;;3.03;2.10;;;;;;;19.31;42.36;103567.94;5030253;28;20411;-71
2022/01/24 00:42:53;;;;;;;4.15;2.40;;;;;;;19.30;42.29;103577.69;5032031;28;20569;-71
2022/01/24 00:56:10;;;;;;;3.70;2.05;;;;;;;19.18;42.30;103567.13;5015650;28;20411;-71
2022/01/24 00:58:36;;;;;;;2.22;1.77;;;;;;;19.15;42.29;103576.13;5036157;28;20041;-71
2022/01/24 01:01:01;;;;;;;2.92;2.42;;;;;;;19.12;42.58;103572.88;5029401;28;20036;-72
2022/01/24 01:03:27;;;;;;;2.70;2.03;;;;;;;19.12;42.43;103572.88;5029046;28;20041;-70
2022/01/24 01:19:19;;;;;;;2.22;1.90;;;;;;;18.96;42.66;103573.94;5030213;28;20596;-71
2022/01/24 01:21:44;;;;;;;2.40;1.75;;;;;;;18.99;42.58;103575.50;5033466;28;20087;-71
2022/01/24 01:24:10;;;;;;;3.40;2.10;;;;;;;18.98;42.52;103566.75;5026341;28;20037;-71
2022/01/24 01:26:54;;;;;;;3.53;2.10;;;;;;;18.98;42.50;103572.03;5032333;28;20045;-71
2022/01/24 01:29:25;;;;;;;3.55;1.73;;;;;;;18.96;42.39;103566.03;5029858;28;20507;-71
2022/01/24 01:32:13;;;;;;;2.55;1.85;;;;;;;18.92;42.57;103559.28;5033470;28;20041;-71
2022/01/24 01:56:12;;;;;;;2.58;1.80;;;;;;;18.78;42.51;103566.47;5033869;28;20037;-70
2022/01/24 01:58:38;;;;;;;3.92;2.22;;;;;;;18.77;42.68;103556.84;5030171;28;20090;-71
2022/01/24 02:01:04;;;;;;;3.15;1.90;;;;;;;18.77;42.60;103562.97;5034677;28;20071;-73
2022/01/24 02:03:30;;;;;;;2.67;1.80;;;;;;;18.74;42.47;103560.56;5029725;28;20036;-71
2022/01/24 02:05:56;;;;;;;3.17;1.90;;;;;;;18.74;42.45;103559.72;5030916;28;20118;-71
2022/01/24 02:08:23;;;;;;;2.58;1.60;;;;;;;18.73;42.59;103558.03;5025375;28;20037;-72
2022/01/24 02:10:49;;;;;;;3.15;2.00;;;;;;;18.69;42.73;103560.03;5026433;28;20640;-71
2022/01/24 02:13:15;;;;;;;2.72;1.83;;;;;;;18.70;42.45;103559.94;5030552;28;20141;-71
2022/01/24 02:15:53;;;;;;;4.18;2.35;;;;;;;18.70;42.60;103554.66;5042424;28;20067;-72
2022/01/24 02:18:36;;;;;;;2.58;1.92;;;;;;;18.66;42.47;103554.94;5031457;28;20484;-72
2022/01/24 02:21:24;;;;;;;2.95;1.83;;;;;;;18.65;42.58;103548.81;5028302;28;20041;-71
2022/01/24 02:23:49;;;;;;;2.78;1.92;;;;;;;18.63;42.38;103547.25;5034255;28;20689;-71
2022/01/24 02:26:20;;;;;;;3.70;1.80;;;;;;;18.55;42.66;103536.34;5029005;28;20050;-71
2022/01/24 02:29:09;;;;;;;2.95;1.83;;;;;;;18.60;42.71;103539.50;5034346;28;20143;-71
2022/01/24 02:34:34;;;;;;;2.90;1.90;;;;;;;18.61;42.52;103533.28;5034694;28;20447;-71
2022/01/24 02:37:04;;;;;;;2.33;1.90;;;;;;;18.60;42.43;103537.72;5032779;28;20040;-71
2022/01/24 02:40:16;;;;;;;2.00;1.77;;;;;;;18.58;42.70;103531.69;5033828;28;20040;-71
2022/01/24 02:53:07;;;;;;;1.92;1.75;;;;;;;18.53;42.65;103530.34;5025243;28;20028;-69
2022/01/24 02:55:36;;;;;;;3.17;2.00;;;;;;;18.51;42.67;103530.44;5029690;28;20032;-71
2022/01/24 02:58:01;;;;;;;2.20;1.73;;;;;;;18.52;42.65;103531.28;5033205;28;20068;-71
2022/01/24 03:00:27;;;;;;;4.18;2.45;;;;;;;18.50;42.59;103530.56;5033457;28;20041;-70
2022/01/24 03:02:52;;;;;;;3.58;1.98;;;;;;;18.49;42.45;103534.13;5030197;28;20044;-71
2022/01/24 03:05:18;;;;;;;3.85;2.00;;;;;;;18.46;42.54;103529.91;5030377;28;20045;-72
2022/01/24 03:07:43;;;;;;;2.15;1.95;;;;;;;18.47;42.50;103528.09;5026471;28;20491;-71
2022/01/24 03:10:14;;;;;;;3.08;1.90;;;;;;;18.48;42.56;103529.78;5030944;28;20765;-71
2022/01/24 03:12:47;;;;;;;2.92;2.05;;;;;;;18.45;42.65;103527.38;5031807;28;20486;-71
2022/01/24 03:15:13;;;;;;;3.05;1.85;;;;;;;18.45;42.73;103524.72;5028073;28;20041;-71
2022/01/24 03:17:38;;;;;;;2.28;1.80;;;;;;;18.45;42.48;103522.94;5033989;28;20439;-71
2022/01/24 03:20:05;;;;;;;2.88;1.90;;;;;;;18.42;42.70;103523.16;5030194;28;20067;-71
2022/01/24 03:22:31;;;;;;;3.08;2.20;;;;;;;18.36;42.71;103518.31;5027702;28;20044;-71
2022/01/24 03:24:57;;;;;;;3.15;2.00;;;;;;;18.36;42.81;103518.31;5027674;28;20037;-71
2022/01/24 03:27:23;;;;;;;2.45;1.80;;;;;;;18.37;42.53;103512.06;5028316;28;20069;-71
2022/01/24 03:29:49;;;;;;;3.25;2.13;;;;;;;18.36;42.64;103519.16;5028048;28;20103;-72
2022/01/24 03:32:14;;;;;;;3.97;2.00;;;;;;;18.36;42.48;103508.59;5030949;28;20487;-71
2022/01/24 03:34:40;;;;;;;4.07;2.28;;;;;;;18.37;42.48;103512.06;5031090;28;20041;-73
2022/01/24 03:37:07;;;;;;;2.15;1.80;;;;;;;18.36;42.59;103511.22;5024824;28;20043;-70
2022/01/24 03:39:33;;;;;;;3.13;1.90;;;;;;;18.34;42.67;103513.13;5029294;28;20033;-70
2022/01/24 03:41:59;;;;;;;2.85;2.15;;;;;;;18.33;42.46;103514.09;5030401;28;20033;-71
2022/01/24 03:44:27;;;;;;;2.83;2.00;;;;;;;18.29;42.59;103517.00;5034399;28;20444;-70
2022/01/24 03:49:46;;;;;;;2.35;1.80;;;;;;;18.27;42.67;103519.75;5038285;28;20044;-71
2022/01/24 03:52:16;;;;;;;2.83;1.75;;;;;;;18.27;42.49;103508.38;5033540;28;20041;-72
2022/01/24 03:54:45;;;;;;;2.08;1.75;;;;;;;18.25;42.60;103512.91;5029313;28;20124;-70
2022/01/24 03:57:16;;;;;;;2.83;2.10;;;;;;;18.26;42.67;103520.72;5033313;28;20031;-71
2022/01/24 03:59:42;;;;;;;3.17;2.10;;;;;;;18.21;42.64;103522.81;5030102;28;20047;-71
2022/01/24 04:02:09;;;;;;;2.78;1.90;;;;;;;18.21;42.73;103509.63;5035558;28;20033;-72
2022/01/24 04:04:34;;;;;;;3.55;1.90;;;;;;;18.21;42.83;103512.28;5035850;28;20087;-71
2022/01/24 04:07:00;;;;;;;4.22;2.20;;;;;;;18.22;42.77;103507.84;5037356;28;20033;-71
2022/01/24 04:09:25;;;;;;;2.65;2.03;;;;;;;18.14;42.71;103492.56;5031969;28;20044;-71
2022/01/24 04:11:54;;;;;;;3.65;2.60;;;;;;;18.22;42.73;103513.13;5034135;28;20041;-71
2022/01/24 04:17:26;;;;;;;2.95;2.00;;;;;;;18.18;42.56;103503.72;5036231;28;20045;-70
2022/01/24 04:22:28;;;;;;;3.53;2.30;;;;;;;18.17;42.66;103516.06;5029731;28;20037;-71
2022/01/24 04:25:02;;;;;;;2.97;2.00;;;;;;;18.16;42.57;103511.75;5030503;28;20044;-72
2022/01/24 04:27:28;;;;;;;3.00;2.00;;;;;;;18.14;42.67;103521.56;5028642;28;20582;-72
2022/01/24 04:29:55;;;;;;;3.33;2.03;;;;;;;18.15;42.50;103509.22;5030755;28;20340;-72
2022/01/24 04:32:21;;;;;;;3.80;2.10;;;;;;;18.12;42.70;103513.72;5029806;28;20052;-72
2022/01/24 04:34:48;;;;;;;2.58;1.90;;;;;;;18.13;42.56;103511.94;5034753;28;20447;-71
2022/01/24 04:37:13;;;;;;;3.63;2.38;;;;;;;18.12;42.55;103500.53;5031048;28;20040;-71
2022/01/24 04:39:39;;;;;;;4.32;2.38;;;;;;;18.12;42.43;103510.25;5034950;28;20048;-71
2022/01/24 04:42:13;;;;;;;3.20;2.20;;;;;;;18.04;42.74;103497.59;5035927;28;21116;-70
2022/01/24 04:47:35;;;;;;;3.00;2.17;;;;;;;18.09;42.69;103506.03;5032369;28;20052;-70
2022/01/24 04:50:41;;;;;;;3.38;2.40;;;;;;;18.00;42.69;103488.22;5031708;28;20045;-71
2022/01/24 04:53:13;;;;;;;4.03;2.00;;;;;;;18.06;42.72;103503.59;5029134;28;20128;-71
2022/01/24 04:55:38;;;;;;;3.45;2.00;;;;;;;18.06;42.50;103506.25;5029528;28;20039;-71
2022/01/24 04:58:04;;;;;;;2.85;2.10;;;;;;;18.06;42.64;103506.25;5032359;28;20079;-71
2022/01/24 05:00:29;;;;;;;3.35;2.20;;;;;;;18.02;42.78;103502.13;5029187;28;20553;-71
2022/01/24 05:02:55;;;;;;;3.63;2.40;;;;;;;18.03;42.46;103502.97;5028917;28;20056;-71
2022/01/24 05:05:22;;;;;;;4.20;2.40;;;;;;;18.02;42.59;103509.19;5024517;28;20461;-71
2022/01/24 05:07:50;;;;;;;3.95;2.45;;;;;;;17.89;42.86;103489.88;5033341;28;20475;-71
2022/01/24 05:10:31;;;;;;;3.58;2.40;;;;;;;17.97;42.73;103504.25;5034522;28;20041;-71
2022/01/24 05:23:54;;;;;;;3.95;2.60;;;;;;;18.02;42.62;103501.28;5026764;28;20387;-70
2022/01/24 05:26:19;;;;;;;4.18;2.40;;;;;;;18.02;42.74;103506.56;5027214;28;20033;-70
2022/01/24 05:28:45;;;;;;;3.75;2.20;;;;;;;18.03;42.45;103503.81;5035157;28;20045;-71
2022/01/24 05:31:10;;;;;;;2.50;2.05;;;;;;;18.01;42.60;103502.22;5037136;28;20491;-70
2022/01/24 05:33:36;;;;;;;2.28;1.95;;;;;;;18.00;42.78;103506.66;5033725;28;20037;-70
2022/01/24 05:36:01;;;;;;;4.28;2.28;;;;;;;17.96;42.64;103499.91;5036869;28;20037;-70
2022/01/24 05:38:27;;;;;;;2.67;2.10;;;;;;;18.04;42.70;103507.28;5036965;28;20060;-71
2022/01/24 05:40:53;;;;;;;3.20;2.15;;;;;;;18.14;42.52;103497.00;5029773;28;20040;-71
2022/01/24 05:43:18;;;;;;;3.65;2.40;;;;;;;18.12;42.33;103492.63;5028007;28;20555;-71
2022/01/24 05:45:44;;;;;;;4.13;2.33;;;;;;;18.34;42.40;103499.94;5033034;28;20036;-70
2022/01/24 05:48:10;;;;;;;3.28;2.30;;;;;;;18.45;42.24;103503.63;5033065;28;20632;-71
2022/01/24 05:50:35;;;;;;;2.47;2.10;;;;;;;18.58;42.08;103504.47;5032369;28;20045;-70
2022/01/24 05:53:01;;;;;;;3.40;2.20;;;;;;;18.68;42.24;103508.19;5034560;28;20041;-70
2022/01/24 05:55:26;;;;;;;4.22;2.72;;;;;;;18.76;41.91;103499.72;5031576;28;20033;-69
2022/01/24 05:57:53;;;;;;;3.50;2.17;;;;;;;18.88;41.86;103504.16;5051550;28;20045;-69
2022/01/24 06:00:20;;;;;;;3.60;2.50;;;;;;;18.95;41.96;103500.13;5038792;28;20136;-70
2022/01/24 06:02:45;;;;;;;3.00;2.30;;;;;;;19.00;41.74;103505.91;5029020;28;20044;-70
2022/01/24 06:05:11;;;;;;;3.20;2.40;;;;;;;19.06;41.72;103504.63;5031407;28;20045;-70
2022/01/24 06:07:37;;;;;;;3.75;2.50;;;;;;;19.08;41.87;103508.84;5029798;28;20462;-70
2022/01/24 06:10:04;;;;;;;2.75;2.20;;;;;;;19.11;41.69;103510.44;5033573;28;20160;-72
2022/01/24 06:12:30;;;;;;;2.03;1.80;;;;;;;19.15;41.61;103517.16;5030944;28;20045;-71
2022/01/24 06:14:56;;;;;;;3.50;2.10;;;;;;;19.17;41.69;103510.81;5030630;28;20041;-71
2022/01/24 06:17:21;;;;;;;4.45;2.50;;;;;;;19.20;41.60;103515.88;5026960;28;20032;-71
2022/01/24 06:19:47;;;;;;;3.08;2.08;;;;;;;19.25;41.65;103516.41;5033310;28;20056;-71
2022/01/24 06:22:13;;;;;;;3.25;2.28;;;;;;;19.33;41.55;103518.47;5034188;28;20076;-71
2022/01/24 06:24:39;;;;;;;4.45;2.30;;;;;;;19.41;41.44;103523.22;5031710;28;20024;-71
2022/01/24 06:27:05;;;;;;;3.92;2.22;;;;;;;19.48;41.40;103511.25;5034745;28;20045;-71
2022/01/24 06:29:30;;;;;;;3.90;2.60;;;;;;;19.52;41.33;103517.97;5031468;28;20049;-71
2022/01/24 06:31:56;;;;;;;5.30;2.67;;;;;;;19.55;41.28;103521.28;5034457;28;20071;-71
2022/01/24 06:34:21;;;;;;;3.10;2.03;;;;;;;19.57;41.29;103515.91;5027511;28;20045;-71
2022/01/24 06:36:47;;;;;;;3.38;2.17;;;;;;;19.60;41.48;103521.78;5031537;28;20043;-70
2022/01/24 06:39:14;;;;;;;3.28;2.30;;;;;;;19.57;41.08;103518.53;5032685;28;20127;-70
2022/01/24 06:41:42;;;;;;;3.17;2.03;;;;;;;19.65;41.21;103523.25;5028879;28;20083;-71
2022/01/24 06:44:07;;;;;;;2.90;2.33;;;;;;;19.64;41.17;103521.56;5031510;28;20047;-70
2022/01/24 06:46:33;;;;;;;3.22;2.20;;;;;;;19.65;41.27;103520.59;5027537;28;20045;-71
2022/01/24 06:48:58;;;;;;;3.75;2.20;;;;;;;19.65;41.27;103520.59;5032094;28;20590;-71
2022/01/24 06:51:25;;;;;;;3.67;2.53;;;;;;;19.61;41.35;103528.78;5029578;28;20101;-72
2022/01/24 06:53:51;;;;;;;2.78;2.30;;;;;;;19.63;41.30;103536.59;5037065;28;20033;-71
2022/01/24 06:56:17;;;;;;;2.92;2.17;;;;;;;19.60;41.20;103537.66;5039140;28;20327;-70
2022/01/24 06:58:43;;;;;;;2.95;2.17;;;;;;;19.61;41.11;103541.97;5026562;28;20514;-71
2022/01/24 07:01:09;;;;;;;2.58;2.05;;;;;;;19.59;41.19;103533.31;5029588;28;20047;-71
2022/01/24 07:03:35;;;;;;;3.35;2.22;;;;;;;19.48;41.24;103522.66;5042259;28;20403;-71
2022/01/24 07:06:01;;;;;;;3.88;2.47;;;;;;;19.54;41.12;103530.16;5034911;28;20128;-71
2022/01/24 07:08:26;;;;;;;3.15;2.30;;;;;;;19.55;41.18;103531.00;5023753;28;20760;-72
2022/01/24 07:10:52;;;;;;;4.38;2.28;;;;;;;19.58;41.18;103526.34;5029091;28;20048;-71
2022/01/24 07:13:20;;;;;;;3.65;2.63;;;;;;;19.62;40.97;103529.59;5026676;28;20503;-71
2022/01/24 07:15:51;;;;;;;3.47;2.20;;;;;;;19.65;40.93;103529.38;5027696;28;20049;-72
2022/01/24 07:19:03;;;;;;;3.90;2.20;;;;;;;19.55;41.10;103520.44;5028234;28;20032;-71
2022/01/24 07:21:05;;;;;;;2.45;1.90;;;;;;;19.64;41.06;103534.78;5029266;28;20155;-71
2022/01/24 07:23:32;;;;;;;3.80;2.50;;;;;;;19.60;41.06;103527.09;5034234;28;20132;-72
2022/01/24 07:25:57;;;;;;;3.55;2.47;;;;;;;19.59;41.17;103524.56;5030251;28;20175;-72
2022/01/24 07:28:23;;;;;;;2.75;2.20;;;;;;;19.58;41.12;103521.06;5031249;28;20109;-71
2022/01/24 07:30:49;;;;;;;2.65;2.10;;;;;;;19.58;41.00;103522.88;5026195;28;20136;-71
2022/01/24 07:33:15;;;;;;;2.55;2.10;;;;;;;19.57;40.96;103523.81;5032143;28;20039;-71
2022/01/24 07:35:41;;;;;;;2.83;2.10;;;;;;;19.57;41.00;103526.47;5024670;28;20799;-71
2022/01/24 07:38:07;;;;;;;4.25;2.40;;;;;;;19.55;41.06;103528.34;5031190;28;20048;-72
2022/01/24 07:40:40;;;;;;;3.42;2.40;;;;;;;19.53;41.01;103525.78;5038463;28;20045;-71
2022/01/24 07:45:34;;;;;;;2.50;2.00;;;;;;;19.51;41.03;103527.72;5022830;28;20090;-71
2022/01/24 07:48:00;;;;;;;3.25;2.22;;;;;;;19.51;40.97;103540.94;5022545;28;20037;-71
2022/01/24 07:50:26;;;;;;;3.85;2.28;;;;;;;19.55;40.78;103536.28;5029381;28;20811;-71
2022/01/24 07:52:52;;;;;;;4.13;2.50;;;;;;;19.55;40.90;103523.91;5024441;28;20052;-72
2022/01/24 07:55:18;;;;;;;3.15;2.42;;;;;;;19.68;40.75;103536.22;5027184;28;20037;-71
2022/01/24 07:57:43;;;;;;;3.03;2.60;;;;;;;19.68;40.73;103530.94;5027081;28;20038;-71
2022/01/24 08:00:11;;;;;;;3.20;2.40;;;;;;;19.68;40.84;103530.94;5025041;28;20322;-71
2022/01/24 08:02:40;;;;;;;2.90;2.25;;;;;;;19.66;40.75;103536.34;5027458;28;20170;-71
2022/01/24 08:05:07;;;;;;;3.15;2.35;;;;;;;19.65;40.91;103539.09;5031720;28;20049;-71
2022/01/24 08:07:33;;;;;;;4.28;2.63;;;;;;;19.64;40.76;103542.72;5025925;28;20111;-71
2022/01/24 08:09:58;;;;;;;3.28;2.25;;;;;;;19.54;40.90;103527.50;5029576;28;20037;-71
2022/01/24 08:12:24;;;;;;;3.35;2.30;;;;;;;19.59;40.83;103543.91;5033220;28;20061;-71
2022/01/24 08:14:50;;;;;;;3.55;2.28;;;;;;;19.57;40.81;103545.81;5042919;28;20060;-71
2022/01/24 08:17:15;;;;;;;3.75;2.25;;;;;;;19.57;40.77;103542.34;5031004;28;20041;-71
2022/01/24 08:19:41;;;;;;;3.50;2.47;;;;;;;19.56;40.93;103546.75;5026718;28;20526;-71
2022/01/24 08:22:07;;;;;;;3.78;2.45;;;;;;;19.57;40.97;103544.97;5030750;28;20045;-71
2022/01/24 08:24:32;;;;;;;4.85;2.63;;;;;;;19.55;40.97;103545.06;5027859;28;20041;-71
2022/01/24 08:26:58;;;;;;;3.42;2.40;;;;;;;19.44;40.88;103537.06;5028877;28;20061;-70
2022/01/24 08:29:23;;;;;;;2.47;2.25;;;;;;;19.53;40.91;103548.75;5031903;28;20049;-71
2022/01/24 08:31:49;;;;;;;3.72;2.55;;;;;;;19.51;40.85;103550.66;5032278;28;20516;-72
2022/01/24 08:34:14;;;;;;;3.60;2.42;;;;;;;19.51;40.79;103545.38;5035718;28;20045;-71
2022/01/24 08:36:40;;;;;;;3.92;2.40;;;;;;;19.53;40.88;103546.94;5032790;28;20144;-71
2022/01/24 08:39:08;;;;;;;3.80;2.53;;;;;;;19.50;41.11;103544.53;5046306;28;20060;-69
2022/01/24 08:47:04;;;;;;;4.93;2.58;;;;;;;19.56;41.11;103554.66;5034622;28;20056;-69
2022/01/24 08:49:29;;;;;;;5.63;2.50;;;;;;;19.57;40.90;103555.53;5034275;28;20032;-69
2022/01/24 08:51:55;;;;;;;4.03;2.42;;;;;;;19.55;41.06;103552.16;5033817;28;20052;-70
2022/01/24 08:54:20;;;;;;;4.30;2.58;;;;;;;19.55;40.99;103554.78;5031754;28;20099;-70
2022/01/24 08:56:47;;;;;;;4.55;2.38;;;;;;;19.54;41.08;103553.09;5031682;28;20045;-69
2022/01/24 08:59:13;;;;;;;4.93;3.20;;;;;;;19.53;40.85;103561.97;5035856;28;20521;-69
2022/01/24 09:01:38;;;;;;;3.45;2.65;;;;;;;19.52;40.85;103554.97;5031890;28;20043;-69
2022/01/24 09:04:04;;;;;;;3.83;2.50;;;;;;;19.50;40.89;103555.09;5033122;28;20475;-70
2022/01/24 09:06:30;;;;;;;7.70;3.22;;;;;;;19.51;40.83;103548.00;5030517;28;20051;-70
2022/01/24 09:08:59;;;;;;;5.35;3.00;;;;;;;19.53;40.86;103554.88;5035109;28;20142;-70
2022/01/24 09:11:29;;;;;;;5.07;3.42;;;;;;;19.58;40.81;103559.88;5026761;28;20046;-71
2022/01/24 09:13:55;;;;;;;5.95;2.80;;;;;;;19.62;40.57;103556.03;5035556;28;20497;-70
2022/01/24 09:16:21;;;;;;;5.38;3.22;;;;;;;19.64;40.76;103553.28;5028515;28;20065;-70
2022/01/24 09:18:46;;;;;;;4.25;2.88;;;;;;;19.67;40.60;103550.41;5032615;28;20049;-70
2022/01/24 09:21:12;;;;;;;7.13;3.20;;;;;;;19.66;40.69;103546.09;5034739;28;20037;-70
2022/01/24 09:23:38;;;;;;;4.07;2.60;;;;;;;19.64;40.61;103550.66;5031806;28;20502;-70
2022/01/24 09:26:04;;;;;;;5.55;2.90;;;;;;;19.65;40.67;103555.81;5026910;28;20073;-70
2022/01/24 09:28:29;;;;;;;4.50;3.00;;;;;;;19.63;40.79;103555.09;5033283;28;20053;-70
2022/01/24 09:30:55;;;;;;;5.75;3.30;;;;;;;19.64;40.89;103556.78;5036378;28;20045;-70
2022/01/24 09:33:21;;;;;;;5.80;3.13;;;;;;;19.64;40.72;103562.06;5031668;28;20411;-69
2022/01/24 09:35:46;;;;;;;5.75;3.00;;;;;;;19.63;40.69;103559.53;5037327;28;20740;-69
2022/01/24 09:38:12;;;;;;;4.90;2.83;;;;;;;19.62;40.78;103563.97;5031690;28;20078;-70
2022/01/24 09:40:38;;;;;;;6.45;3.28;;;;;;;19.64;40.75;103561.22;5034594;28;20052;-70
2022/01/24 09:43:05;;;;;;;5.90;3.35;;;;;;;19.61;40.79;103559.66;5028316;28;20048;-71
2022/01/24 09:45:31;;;;;;;6.35;3.30;;;;;;;19.59;40.64;103557.13;5034790;28;20033;-71
2022/01/24 09:47:58;;;;;;;5.75;3.20;;;;;;;19.60;40.65;103556.16;5028545;28;20595;-70
2022/01/24 09:50:24;;;;;;;5.97;3.70;;;;;;;19.64;40.56;103545.34;5035689;28;20371;-71
2022/01/24 09:52:50;;;;;;;5.32;3.25;;;;;;;19.65;40.56;103549.69;5030454;28;21668;-70
2022/01/24 09:55:18;;;;;;;4.90;2.85;;;;;;;19.70;40.44;103551.03;5030256;28;20037;-70
2022/01/24 09:57:47;;;;;;;12.88;3.97;;;;;;;19.69;40.59;103551.13;5028891;28;20120;-70
2022/01/24 10:00:15;;;;;;;4.95;3.17;;;;;;;19.72;40.60;103550.91;5029740;28;20037;-71
2022/01/24 10:02:44;;;;;;;5.90;3.80;;;;;;;19.70;40.70;103547.53;5033540;28;20033;-70
2022/01/24 10:05:18;;;;;;;7.60;3.88;;;;;;;19.70;40.59;103550.19;5031465;28;20475;-71
2022/01/24 10:07:51;;;;;;;6.57;3.83;;;;;;;19.69;40.50;103545.84;5034070;28;20387;-70
2022/01/24 10:10:47;;;;;;;6.47;3.67;;;;;;;19.70;40.63;103552.81;5027373;28;20283;-70
2022/01/24 10:16:31;;;;;;;7.13;3.83;;;;;;;19.66;40.70;103548.72;5030487;28;20142;-71
2022/01/24 10:19:14;;;;;;;6.28;3.97;;;;;;;19.67;40.68;103545.97;5037467;28;20052;-71
2022/01/24 10:21:47;;;;;;;7.25;3.88;;;;;;;19.68;40.64;103544.16;5036057;28;20080;-71
2022/01/24 10:24:31;;;;;;;7.72;4.03;;;;;;;19.65;40.55;103558.47;5033032;28;20059;-70
2022/01/24 10:27:17;;;;;;;7.93;4.00;;;;;;;19.64;40.55;103551.47;5035325;28;20053;-71
2022/01/24 10:29:51;;;;;;;8.88;4.45;;;;;;;19.65;40.61;103552.31;5032196;28;20107;-71
2022/01/24 10:32:43;;;;;;;9.27;3.90;;;;;;;19.68;40.71;103549.44;5033494;28;20491;-71
2022/01/24 10:35:27;;;;;;;9.20;4.30;;;;;;;19.70;40.54;103558.94;5034504;28;20123;-71
2022/01/24 10:38:28;;;;;;;9.32;4.60;;;;;;;19.70;40.56;103556.31;5034906;28;20042;-72
2022/01/24 10:41:19;;;;;;;8.00;4.70;;;;;;;19.69;40.59;103556.44;5030868;28;20076;-71
2022/01/24 10:43:45;;;;;;;7.65;4.72;;;;;;;19.70;40.55;103560.75;5031755;28;20466;-71
2022/01/24 10:46:11;;;;;;;8.82;4.70;;;;;;;19.69;40.59;103556.44;5034611;28;20055;-71
2022/01/24 10:48:39;;;;;;;6.68;4.00;;;;;;;19.67;40.74;103560.97;5031265;28;20624;-70
2022/01/24 10:58:18;;;;;;;13.50;7.35;;;;;;;19.90;40.62;103560.13;5009224;28;20592;-70
2022/01/24 11:00:45;;;;;;;15.73;7.50;;;;;;;20.00;40.82;103555.00;4985841;28;20061;-75
2022/01/24 11:03:19;;;;;;;14.98;7.25;;;;;;;20.08;40.68;103553.44;5015230;28;20042;-75
2022/01/24 11:08:44;;;;;;;;;;;;;;;21.96;37.02;103544.66;4926197;26;20056;-61
2022/01/24 11:11:11;;;;;;;12.75;6.30;;;;;;;22.33;36.58;103548.72;4990246;28;20661;-67
2022/01/24 11:13:39;;;;;;;14.02;7.13;;;;;;;22.49;36.48;103544.63;4993686;28;20048;-70
2022/01/24 11:16:05;;;;;;;13.40;7.03;;;;;;;22.59;35.96;103540.19;4952511;28;20060;-66
2022/01/24 11:18:31;;;;;;;15.57;8.00;;;;;;;22.51;35.93;103532.03;4993699;28;20039;-68
2022/01/24 11:21:05;;;;;;;18.75;8.30;;;;;;;22.62;35.96;103525.78;4989906;28;20056;-72
2022/01/24 11:23:32;;;;;;;20.48;10.13;;;;;;;22.44;35.19;103522.06;4969816;28;20042;-67
2022/01/24 11:25:59;;;;;;;21.42;8.60;;;;;;;22.43;35.90;103528.34;4992879;28;20050;-64
2022/01/24 11:28:25;;;;;;;15.18;7.43;;;;;;;22.18;36.48;103511.88;4961184;28;20042;-62
2022/01/24 11:31:06;;;;;;;18.50;8.80;;;;;;;22.02;36.79;103520.25;4972126;28;20062;-61
2022/01/24 11:33:47;;;;;;;19.85;8.77;;;;;;;22.06;36.66;103526.19;4957216;28;20909;-62
2022/01/24 11:36:12;;;;;;;18.00;7.93;;;;;;;22.01;36.69;103515.09;4988576;28;20034;-62
2022/01/24 11:38:42;;;;;;;17.40;8.30;;;;;;;22.09;36.56;103519.81;4962301;28;20668;-62
2022/01/24 11:41:22;;;;;;;15.63;7.35;;;;;;;22.09;36.29;103515.34;4993239;28;20099;-62
2022/01/24 11:43:51;;;;;;;16.30;7.85;;;;;;;22.08;36.33;103515.44;4962404;28;20487;-62
2022/01/24 11:49:18;;;;;;;17.55;8.68;;;;;;;21.93;36.51;103517.56;4962007;28;20472;-62
2022/01/24 11:51:47;;;;;;;14.13;7.45;;;;;;;21.95;36.47;103527.06;4985701;28;20045;-62
2022/01/24 11:54:30;;;;;;;16.40;8.43;;;;;;;21.94;36.46;103524.56;4947297;28;20439;-62
2022/01/24 11:57:17;;;;;;;17.02;9.25;;;;;;;21.93;36.31;103528.19;4987901;28;20034;-62
2022/01/24 11:59:44;;;;;;;18.55;8.52;;;;;;;21.80;36.80;103520.38;4985980;28;20053;-63
2022/01/24 12:02:15;;;;;;;18.63;8.50;;;;;;;21.71;36.75;103527.28;4974934;28;20022;-61
2022/01/24 12:04:57;;;;;;;15.88;8.43;;;;;;;21.81;36.51;103518.59;4968101;28;20431;-62
2022/01/24 12:07:25;;;;;;;16.60;9.25;;;;;;;21.76;36.27;103513.66;4977716;28;20585;-61
2022/01/24 12:09:52;;;;;;;15.65;8.23;;;;;;;21.76;36.26;103518.13;4949679;28;20598;-61
2022/01/24 12:12:36;;;;;;;16.80;8.73;;;;;;;21.70;36.54;103515.00;4979111;28;20045;-62
2022/01/24 12:15:04;;;;;;;18.63;9.65;;;;;;;21.63;36.52;103503.22;4946862;28;20093;-62
2022/01/24 12:17:47;;;;;;;16.98;8.55;;;;;;;21.63;36.45;103505.88;4975939;28;20506;-62
2022/01/24 12:20:31;;;;;;;15.68;8.45;;;;;;;21.62;36.37;103501.53;4948751;28;20046;-61
2022/01/24 12:23:16;;;;;;;19.85;9.80;;;;;;;21.60;36.33;103494.69;4964247;28;20101;-61
2022/01/24 12:25:52;;;;;;;17.92;9.00;;;;;;;21.59;36.59;103493.84;4976148;28;20041;-61
2022/01/24 12:28:27;;;;;;;18.40;9.38;;;;;;;21.59;36.27;103490.34;4947874;28;20153;-62
2022/01/24 12:30:58;;;;;;;18.70;9.13;;;;;;;21.55;36.52;103492.44;4978161;28;20074;-62
2022/01/24 12:33:32;;;;;;;19.63;9.27;;;;;;;21.56;36.33;103488.81;4950242;28;20045;-62
2022/01/24 12:35:58;;;;;;;17.60;9.20;;;;;;;21.62;36.37;103485.63;4958379;28;20039;-62
2022/01/24 12:38:24;;;;;;;18.55;9.68;;;;;;;21.60;36.14;103476.97;4936452;28;20133;-62
2022/01/24 12:41:17;;;;;;;19.00;9.35;;;;;;;21.58;36.02;103465.66;4976628;28;20108;-62
2022/01/24 12:44:09;;;;;;;20.17;8.80;;;;;;;21.56;36.19;103467.59;4945747;28;20120;-61
2022/01/24 12:46:35;;;;;;;17.60;10.05;;;;;;;21.61;35.99;103472.50;4975427;28;20381;-62
2022/01/24 12:49:05;;;;;;;20.20;10.48;;;;;;;21.72;36.05;103467.13;4943324;28;20041;-62
2022/01/24 12:51:33;;;;;;;19.05;10.27;;;;;;;21.74;35.81;103467.88;4978697;28;20026;-62
2022/01/24 12:54:02;;;;;;;16.70;8.95;;;;;;;21.70;35.80;103474.38;4948461;28;20100;-61
2022/01/24 12:56:29;;;;;;;19.70;8.93;;;;;;;21.71;35.90;103468.94;4972091;28;20084;-62
2022/01/24 12:58:56;;;;;;;17.45;8.45;;;;;;;21.62;36.18;103466.22;4973077;28;20435;-62
2022/01/24 13:01:31;;;;;;;19.15;10.10;;;;;;;21.61;36.17;103483.97;4947209;28;20039;-62
2022/01/24 13:03:58;;;;;;;17.45;9.95;;;;;;;21.64;35.95;103474.91;4970901;28;20160;-62
2022/01/24 13:06:31;;;;;;;20.52;10.20;;;;;;;21.63;36.00;103476.72;4953562;28;20038;-62
2022/01/24 13:09:02;;;;;;;16.90;9.38;;;;;;;21.53;35.84;103454.56;4973326;28;20439;-62
2022/01/24 13:11:30;;;;;;;18.27;10.20;;;;;;;21.64;35.89;103472.25;4941372;28;20152;-62
2022/01/24 13:14:14;;;;;;;19.67;10.02;;;;;;;21.61;36.03;103464.56;4977649;28;20034;-62
2022/01/24 13:25:08;;;;;;;18.50;9.93;;;;;;;21.59;35.78;103459.38;4973310;28;20034;-62
2022/01/24 13:27:39;;;;;;;20.40;10.65;;;;;;;21.57;35.92;103455.19;4937948;28;20092;-62
2022/01/24 13:30:07;;;;;;;18.83;9.82;;;;;;;21.65;36.08;103458.00;4974108;28;20369;-62
2022/01/24 13:32:53;;;;;;;19.90;10.57;;;;;;;21.70;35.64;103455.81;4947963;28;21453;-62
2022/01/24 13:35:33;;;;;;;20.75;10.65;;;;;;;21.71;35.57;103450.38;4971968;28;20557;-62
2022/01/24 13:38:08;;;;;;;18.52;10.23;;;;;;;21.68;35.92;103455.09;4944710;28;20661;-62
2022/01/24 13:40:38;;;;;;;17.27;9.85;;;;;;;21.62;35.82;103448.50;4969284;28;20862;-62